createdAt,value
2023-01-18T00:01:19.152Z,4.30
2023-01-18T00:03:47.598Z,5.73
2023-01-18T00:06:16.602Z,5.87
2023-01-18T00:08:45.012Z,5.97
2023-01-18T00:11:18.905Z,3.70
2023-01-18T00:13:47.684Z,4.53
2023-01-18T00:16:18.552Z,7.13
2023-01-18T00:18:52.626Z,4.47
2023-01-18T00:21:21.244Z,5.00
2023-01-18T00:23:49.680Z,5.03
2023-01-18T00:26:19.964Z,6.40
2023-01-18T00:28:48.295Z,4.83
2023-01-18T00:31:19.257Z,4.50
2023-01-18T00:33:50.359Z,5.23
2023-01-18T00:36:19.570Z,4.53
2023-01-18T00:38:52.276Z,5.20
2023-01-18T00:41:22.900Z,3.50
2023-01-18T00:43:50.468Z,5.50
2023-01-18T00:46:20.921Z,5.03
2023-01-18T00:48:51.063Z,3.53
2023-01-18T00:51:22.556Z,4.30
2023-01-18T00:53:51.496Z,4.63
2023-01-18T00:56:23.472Z,6.03
2023-01-18T00:58:52.060Z,5.30
2023-01-18T01:01:20.597Z,6.03
2023-01-18T01:04:06.561Z,4.83
2023-01-18T01:06:46.530Z,6.27
2023-01-18T01:09:18.612Z,5.80
2023-01-18T01:12:06.312Z,5.63
2023-01-18T01:14:54.665Z,5.17
2023-01-18T01:17:40.592Z,8.50
2023-01-18T01:20:28.486Z,8.57
2023-01-18T01:23:14.457Z,8.60
2023-01-18T01:26:00.289Z,7.33
2023-01-18T01:28:29.982Z,8.23
2023-01-18T01:31:00.442Z,9.10
2023-01-18T01:33:29.285Z,6.43
2023-01-18T01:35:58.732Z,6.40
2023-01-18T01:38:27.177Z,7.07
2023-01-18T01:41:01.602Z,7.27
2023-01-18T01:43:46.476Z,8.00
2023-01-18T01:46:26.984Z,4.60
2023-01-18T01:49:02.976Z,7.90
2023-01-18T01:51:32.016Z,5.07
2023-01-18T01:54:03.653Z,4.43
2023-01-18T01:56:33.324Z,5.23
2023-01-18T01:59:04.742Z,5.73
2023-01-18T02:01:33.504Z,6.13
2023-01-18T02:04:03.609Z,6.07
2023-01-18T02:06:36.211Z,5.23
2023-01-18T02:09:08.563Z,4.33
2023-01-18T02:11:37.210Z,5.63
2023-01-18T02:14:12.826Z,4.57
2023-01-18T02:17:01.774Z,5.50
2023-01-18T02:20:04.738Z,4.60
2023-01-18T02:22:58.206Z,4.03
2023-01-18T02:25:55.862Z,5.27
2023-01-18T02:28:32.606Z,4.73
2023-01-18T02:31:11.068Z,5.20
2023-01-18T02:33:46.972Z,6.43
2023-01-18T02:36:26.464Z,4.90
2023-01-18T02:39:02.529Z,6.43
2023-01-18T02:41:51.307Z,5.10
2023-01-18T02:44:46.042Z,6.10
2023-01-18T02:47:14.546Z,4.73
2023-01-18T02:49:43.512Z,5.70
2023-01-18T02:52:41.094Z,6.13
2023-01-18T02:55:15.237Z,5.93
2023-01-18T02:57:44.534Z,5.77
2023-01-18T03:00:18.983Z,4.73
2023-01-18T03:02:49.189Z,4.00
2023-01-18T03:05:18.812Z,5.53
2023-01-18T03:07:55.812Z,7.87
2023-01-18T03:10:29.376Z,6.93
2023-01-18T03:13:01.602Z,5.43
2023-01-18T03:15:40.487Z,5.93
2023-01-18T03:18:17.255Z,3.87
2023-01-18T03:20:53.565Z,7.40
2023-01-18T03:23:41.114Z,7.70
2023-01-18T03:26:12.176Z,7.10
2023-01-18T03:29:02.036Z,5.20
2023-01-18T03:31:57.280Z,5.83
2023-01-18T03:34:30.316Z,5.13
2023-01-18T03:37:02.966Z,6.27
2023-01-18T03:39:36.882Z,5.00
2023-01-18T03:42:11.358Z,3.80
2023-01-18T03:44:45.581Z,4.03
2023-01-18T03:47:15.337Z,4.90
2023-01-18T03:49:43.801Z,5.93
2023-01-18T03:52:19.887Z,5.50
2023-01-18T03:54:58.167Z,4.77
2023-01-18T03:57:33.723Z,4.27
2023-01-18T04:00:04.145Z,3.97
2023-01-18T04:02:44.577Z,6.63
2023-01-18T04:05:13.491Z,4.20
2023-01-18T04:07:41.869Z,4.57
2023-01-18T04:10:12.643Z,3.47
2023-01-18T04:12:40.977Z,5.33
2023-01-18T04:15:10.875Z,3.17
2023-01-18T04:17:39.742Z,4.63
2023-01-18T04:20:11.626Z,4.23
2023-01-18T04:22:39.974Z,6.67
2023-01-18T04:25:09.230Z,5.40
2023-01-18T04:27:37.580Z,5.67
2023-01-18T04:30:07.365Z,5.33
2023-01-18T04:32:35.673Z,8.20
2023-01-18T04:35:04.003Z,4.23
2023-01-18T04:37:34.242Z,4.47
2023-01-18T04:40:02.978Z,4.23
2023-01-18T04:42:31.524Z,4.63
2023-01-18T04:45:00.936Z,3.57
2023-01-18T04:47:30.078Z,5.97
2023-01-18T04:49:58.683Z,3.87
2023-01-18T04:52:27.128Z,4.20
2023-01-18T04:54:56.921Z,5.40
2023-01-18T04:57:25.524Z,5.47
2023-01-18T04:59:53.858Z,5.40
2023-01-18T05:02:22.270Z,6.03
2023-01-18T05:04:50.566Z,5.70
2023-01-18T05:07:18.902Z,6.63
2023-01-18T05:09:47.941Z,6.33
2023-01-18T05:12:17.665Z,7.67
2023-01-18T05:14:45.992Z,5.07
2023-01-18T05:17:14.289Z,3.43
2023-01-18T05:19:42.584Z,7.23
2023-01-18T05:22:10.951Z,7.47
2023-01-18T05:24:39.279Z,6.10
2023-01-18T05:27:07.620Z,5.10
2023-01-18T05:29:37.413Z,6.00
2023-01-18T05:32:07.262Z,5.97
2023-01-18T05:34:35.691Z,6.13
2023-01-18T05:37:04.673Z,7.33
2023-01-18T05:39:33.004Z,4.97
2023-01-18T05:42:01.330Z,5.20
2023-01-18T05:44:29.646Z,7.33
2023-01-18T05:46:59.498Z,5.27
2023-01-18T05:49:28.027Z,6.87
2023-01-18T05:51:56.349Z,5.93
2023-01-18T05:54:24.871Z,4.57
2023-01-18T05:56:53.176Z,6.93
2023-01-18T05:59:21.491Z,6.23
2023-01-18T06:01:49.760Z,6.57
2023-01-18T06:04:19.725Z,6.47
2023-01-18T06:06:48.042Z,5.10
2023-01-18T06:09:16.331Z,5.93
2023-01-18T06:11:44.639Z,5.67
2023-01-18T06:14:12.952Z,6.00
2023-01-18T06:16:41.292Z,5.50
2023-01-18T06:19:09.697Z,4.80
2023-01-18T06:21:39.392Z,5.27
2023-01-18T06:24:08.540Z,6.30
2023-01-18T06:26:36.824Z,7.57
2023-01-18T06:29:05.172Z,5.17
2023-01-18T06:31:33.617Z,8.60
2023-01-18T06:34:09.181Z,9.50
2023-01-18T06:36:40.293Z,6.33
2023-01-18T06:39:08.984Z,6.73
2023-01-18T06:41:37.307Z,8.27
2023-01-18T06:44:06.063Z,5.90
2023-01-18T06:46:35.584Z,7.87
2023-01-18T06:49:03.907Z,6.87
2023-01-18T06:51:32.211Z,5.83
2023-01-18T06:54:02.048Z,6.53
2023-01-18T06:56:30.510Z,6.13
2023-01-18T06:59:00.193Z,6.67
2023-01-18T07:01:46.991Z,7.47
2023-01-18T07:04:15.414Z,7.97
2023-01-18T07:06:43.732Z,7.30
2023-01-18T07:09:13.658Z,8.60
2023-01-18T07:11:43.376Z,7.00
2023-01-18T07:14:12.413Z,6.37
2023-01-18T07:16:40.799Z,5.73
2023-01-18T07:19:09.490Z,6.90
2023-01-18T07:21:37.835Z,7.87
2023-01-18T07:24:07.434Z,7.00
2023-01-18T07:26:37.130Z,7.93
2023-01-18T07:29:05.554Z,5.80
2023-01-18T07:31:33.859Z,6.20
2023-01-18T07:34:02.189Z,7.20
2023-01-18T07:36:30.852Z,6.77
2023-01-18T07:39:01.299Z,6.23
2023-01-18T07:41:31.018Z,6.63
2023-01-18T07:44:01.080Z,6.97
2023-01-18T07:46:29.690Z,5.70
2023-01-18T07:48:58.326Z,6.30
2023-01-18T07:51:26.626Z,5.87
2023-01-18T07:53:55.853Z,6.33
2023-01-18T07:56:25.732Z,8.70
2023-01-18T07:58:54.675Z,7.47
2023-01-18T08:01:24.994Z,9.67
2023-01-18T08:03:54.726Z,9.20
2023-01-18T08:06:26.020Z,10.53
2023-01-18T08:08:56.970Z,6.87
2023-01-18T08:11:25.602Z,7.57
2023-01-18T08:13:53.957Z,8.70
2023-01-18T08:16:24.466Z,6.90
2023-01-18T08:18:53.078Z,8.67
2023-01-18T08:21:21.520Z,7.83
2023-01-18T08:23:51.181Z,8.87
2023-01-18T08:26:19.568Z,8.30
2023-01-18T08:28:47.889Z,9.50
2023-01-18T08:31:19.716Z,10.80
2023-01-18T08:33:51.010Z,12.83
2023-01-18T08:36:22.306Z,15.63
2023-01-18T08:38:51.523Z,12.77
2023-01-18T08:41:20.481Z,9.47
2023-01-18T08:43:50.953Z,10.40
2023-01-18T08:46:20.191Z,8.67
2023-01-18T08:48:52.032Z,11.73
2023-01-18T08:51:22.965Z,8.47
2023-01-18T08:53:53.510Z,6.10
2023-01-18T08:56:22.227Z,8.63
2023-01-18T08:58:52.147Z,9.33
2023-01-18T09:01:23.237Z,8.50
2023-01-18T09:03:55.754Z,10.20
2023-01-18T09:06:24.446Z,7.47
2023-01-18T09:08:53.088Z,7.50
2023-01-18T09:11:21.447Z,7.30
2023-01-18T09:14:00.198Z,8.03
2023-01-18T09:16:30.070Z,7.87
2023-01-18T09:18:59.920Z,9.40
2023-01-18T09:21:29.586Z,10.97
2023-01-18T09:23:59.411Z,11.23
2023-01-18T09:26:29.097Z,9.17
2023-01-18T09:28:57.663Z,9.73
2023-01-18T09:31:28.468Z,11.03
2023-01-18T09:34:09.575Z,12.90
2023-01-18T09:36:47.771Z,16.37
2023-01-18T09:39:16.118Z,15.70
2023-01-18T09:41:47.442Z,13.17
2023-01-18T09:44:24.454Z,11.13
2023-01-18T09:46:56.667Z,12.00
2023-01-18T09:49:35.839Z,10.57
2023-01-18T09:52:23.402Z,12.00
2023-01-18T09:54:58.444Z,8.23
2023-01-18T09:57:47.830Z,10.33
2023-01-18T10:00:23.614Z,9.40
2023-01-18T10:02:55.582Z,8.00
2023-01-18T10:05:28.339Z,9.03
2023-01-18T10:08:05.974Z,8.53
2023-01-18T10:10:40.089Z,6.13
2023-01-18T10:13:33.890Z,6.50
2023-01-18T10:16:03.442Z,4.13
2023-01-18T10:18:32.021Z,4.50
2023-01-18T10:21:06.312Z,6.37
2023-01-18T10:23:44.332Z,7.20
2023-01-18T10:26:20.535Z,5.97
2023-01-18T10:28:56.374Z,8.70
2023-01-18T10:31:41.583Z,5.73
2023-01-18T10:34:19.699Z,3.00
2023-01-18T10:36:52.839Z,5.73
2023-01-18T10:39:36.005Z,4.43
2023-01-18T10:42:07.329Z,4.67
2023-01-18T10:44:35.643Z,6.47
2023-01-18T10:47:04.015Z,2.93
2023-01-18T10:49:38.395Z,4.73
2023-01-18T10:52:20.693Z,4.00
2023-01-18T10:54:56.712Z,3.87
2023-01-18T10:57:29.968Z,5.70
2023-01-18T10:59:59.516Z,6.30
2023-01-18T11:02:36.192Z,3.90
2023-01-18T11:05:22.316Z,4.63
2023-01-18T11:08:20.269Z,2.93
2023-01-18T11:11:00.430Z,3.80
2023-01-18T11:13:34.542Z,5.73
2023-01-18T11:16:17.551Z,6.97
2023-01-18T11:19:02.849Z,4.23
2023-01-18T11:21:46.379Z,3.43
2023-01-18T11:24:18.683Z,3.73
2023-01-18T11:26:59.091Z,3.47
2023-01-18T11:29:31.080Z,3.57
2023-01-18T11:32:05.962Z,4.50
2023-01-18T11:34:37.154Z,5.17
2023-01-18T11:37:29.166Z,6.83
2023-01-18T11:39:58.115Z,6.10
2023-01-18T11:42:31.661Z,7.57
2023-01-18T11:45:15.134Z,4.23
2023-01-18T11:47:57.771Z,3.80
2023-01-18T11:50:34.515Z,3.73
2023-01-18T11:53:16.648Z,4.30
2023-01-18T11:55:56.460Z,5.27
2023-01-18T11:58:29.757Z,4.87
2023-01-18T12:01:12.230Z,5.00
2023-01-18T12:03:54.115Z,5.47
2023-01-18T12:06:38.820Z,3.27
2023-01-18T12:09:34.702Z,5.00
2023-01-18T12:12:30.406Z,4.03
2023-01-18T12:15:23.716Z,4.17
2023-01-18T12:18:13.685Z,8.33
2023-01-18T12:20:55.613Z,8.13
2023-01-18T12:24:21.023Z,5.73
2023-01-18T12:26:54.771Z,7.77
2023-01-18T12:30:09.761Z,8.13
2023-01-18T12:32:57.589Z,5.10
2023-01-18T12:35:57.330Z,6.60
2023-01-18T12:38:29.906Z,5.93
2023-01-18T12:41:48.642Z,11.90
2023-01-18T12:45:02.254Z,8.43
2023-01-18T12:47:38.098Z,4.93
2023-01-18T12:50:23.237Z,3.87
2023-01-18T12:52:55.186Z,3.83
2023-01-18T12:55:26.689Z,4.50
2023-01-18T12:57:59.663Z,3.73
2023-01-18T13:00:36.039Z,7.90
2023-01-18T13:03:11.392Z,3.97
2023-01-18T13:05:52.432Z,3.83
2023-01-18T13:08:35.825Z,4.73
2023-01-18T13:11:10.539Z,3.30
2023-01-18T13:13:40.927Z,5.13
2023-01-18T13:16:25.610Z,5.30
2023-01-18T13:19:00.470Z,5.23
2023-01-18T13:21:49.667Z,5.70
2023-01-18T13:24:37.565Z,4.00
2023-01-18T13:27:11.643Z,4.73
2023-01-18T13:29:40.845Z,6.63
2023-01-18T13:32:27.688Z,6.90
2023-01-18T13:35:19.023Z,7.87
2023-01-18T13:37:54.452Z,5.47
2023-01-18T13:40:37.807Z,9.43
2023-01-18T13:43:07.988Z,6.53
2023-01-18T13:46:02.331Z,7.00
2023-01-18T13:48:46.721Z,6.57
2023-01-18T13:51:53.932Z,7.73
2023-01-18T13:55:03.771Z,11.40
2023-01-18T13:57:35.343Z,9.53
2023-01-18T14:00:05.806Z,14.43
2023-01-18T14:02:42.409Z,11.37
2023-01-18T14:05:25.261Z,16.77
2023-01-18T14:07:57.485Z,9.77
2023-01-18T14:10:31.788Z,9.80
2023-01-18T14:13:03.259Z,8.13
2023-01-18T14:15:52.529Z,9.57
2023-01-18T14:18:26.402Z,11.03
2023-01-18T14:21:06.751Z,9.77
2023-01-18T14:24:02.882Z,7.07
2023-01-18T14:26:35.269Z,10.17
2023-01-18T14:29:08.139Z,9.90
2023-01-18T14:31:41.779Z,11.00
2023-01-18T14:34:38.665Z,11.07
2023-01-18T14:37:29.599Z,9.97
2023-01-18T14:40:16.355Z,9.87
2023-01-18T14:42:51.060Z,11.27
2023-01-18T14:45:30.019Z,9.83
2023-01-18T14:48:03.444Z,6.80
2023-01-18T14:50:38.736Z,12.03
2023-01-18T14:53:12.725Z,8.50
2023-01-18T14:55:41.085Z,8.37
2023-01-18T14:58:17.763Z,6.40
2023-01-18T15:00:49.479Z,7.63
2023-01-18T15:03:27.582Z,10.17
2023-01-18T15:06:03.245Z,6.20
2023-01-18T15:08:35.178Z,8.13
2023-01-18T15:11:06.114Z,9.23
2023-01-18T15:13:49.395Z,8.20
2023-01-18T15:16:23.888Z,10.40
2023-01-18T15:19:02.453Z,8.80
2023-01-18T15:21:34.001Z,9.00
2023-01-18T15:24:07.705Z,7.67
2023-01-18T15:26:43.490Z,6.87
2023-01-18T15:29:18.792Z,6.73
2023-01-18T15:31:55.532Z,10.20
2023-01-18T15:34:32.565Z,10.80
2023-01-18T15:37:12.640Z,8.73
2023-01-18T15:39:50.377Z,7.23
2023-01-18T15:42:19.620Z,12.23
2023-01-18T15:44:52.555Z,11.13
2023-01-18T15:47:27.529Z,6.80
2023-01-18T15:49:59.465Z,6.23
2023-01-18T15:52:44.918Z,7.03
2023-01-18T15:55:24.570Z,7.10
2023-01-18T15:58:02.380Z,9.23
2023-01-18T16:00:41.163Z,7.53
2023-01-18T16:03:20.667Z,10.53
2023-01-18T16:06:12.801Z,12.83
2023-01-18T16:08:59.725Z,9.03
2023-01-18T16:11:34.914Z,12.27
2023-01-18T16:14:07.724Z,12.47
2023-01-18T16:16:39.857Z,10.13
2023-01-18T16:19:20.932Z,15.27
2023-01-18T16:21:52.627Z,16.03
2023-01-18T16:24:31.674Z,11.77
2023-01-18T16:27:11.262Z,13.57
2023-01-18T16:29:45.434Z,12.43
2023-01-18T16:32:31.906Z,13.73
2023-01-18T16:35:04.003Z,9.70
2023-01-18T16:37:32.571Z,10.53
2023-01-18T16:40:02.782Z,9.83
2023-01-18T16:42:38.080Z,10.23
2023-01-18T16:45:14.131Z,11.57
2023-01-18T16:47:43.898Z,16.17
2023-01-18T16:50:16.063Z,10.67
2023-01-18T16:52:44.793Z,15.07
2023-01-18T16:55:14.172Z,10.70
2023-01-18T16:57:43.613Z,9.37
2023-01-18T17:00:20.231Z,12.67
2023-01-18T17:02:50.196Z,11.00
2023-01-18T17:05:18.852Z,9.53
2023-01-18T17:07:47.931Z,10.30
2023-01-18T17:10:23.591Z,9.40
2023-01-18T17:12:51.991Z,9.87
2023-01-18T17:15:20.533Z,10.83
2023-01-18T17:17:50.751Z,12.63
2023-01-18T17:20:21.911Z,9.37
2023-01-18T17:22:52.355Z,10.87
2023-01-18T17:25:21.743Z,11.27
2023-01-18T17:27:50.947Z,12.30
2023-01-18T17:30:22.841Z,12.13
2023-01-18T17:32:52.821Z,12.00
2023-01-18T17:35:24.719Z,13.13
2023-01-18T17:38:00.738Z,11.50
2023-01-18T17:40:41.741Z,11.90
2023-01-18T17:43:15.301Z,15.07
2023-01-18T17:45:51.282Z,14.13
2023-01-18T17:48:28.556Z,14.03
2023-01-18T17:50:57.050Z,16.30
2023-01-18T17:53:25.930Z,14.17
2023-01-18T17:55:54.547Z,17.20
2023-01-18T17:58:22.977Z,18.03
2023-01-18T18:00:51.633Z,13.90
2023-01-18T18:03:20.752Z,16.43
2023-01-18T18:05:50.912Z,15.03
2023-01-18T18:08:20.868Z,15.60
2023-01-18T18:10:50.192Z,19.37
2023-01-18T18:13:19.319Z,24.13
2023-01-18T18:15:50.167Z,25.47
2023-01-18T18:18:23.076Z,23.53
2023-01-18T18:20:58.642Z,20.40
2023-01-18T18:23:28.238Z,21.30
2023-01-18T18:25:58.200Z,23.67
2023-01-18T18:28:29.574Z,23.73
2023-01-18T18:30:59.076Z,19.73
2023-01-18T18:33:29.484Z,20.30
2023-01-18T18:35:59.546Z,22.17
2023-01-18T18:38:28.483Z,22.30
2023-01-18T18:41:03.833Z,20.40
2023-01-18T18:43:32.582Z,23.13
2023-01-18T18:46:01.131Z,25.17
2023-01-18T18:48:29.561Z,24.33
2023-01-18T18:50:59.264Z,20.83
2023-01-18T18:53:37.592Z,21.37
2023-01-18T18:56:09.608Z,23.70
2023-01-18T18:58:38.683Z,21.10
2023-01-18T19:01:09.122Z,21.40
2023-01-18T19:03:37.545Z,24.07
2023-01-18T19:06:07.906Z,22.70
2023-01-18T19:08:36.268Z,24.50
2023-01-18T19:11:04.670Z,22.20
2023-01-18T19:13:33.069Z,20.70
2023-01-18T19:16:01.743Z,19.80
2023-01-18T19:18:30.327Z,21.90
2023-01-18T19:20:58.864Z,22.33
2023-01-18T19:23:28.797Z,23.33
2023-01-18T19:25:57.168Z,25.03
2023-01-18T19:28:25.719Z,23.80
2023-01-18T19:30:54.981Z,25.87
2023-01-18T19:33:23.509Z,25.60
2023-01-18T19:35:51.955Z,23.00
2023-01-18T19:38:20.578Z,21.57
2023-01-18T19:40:50.815Z,20.73
2023-01-18T19:43:19.899Z,20.33
2023-01-18T19:45:48.235Z,24.37
2023-01-18T19:48:16.687Z,23.87
2023-01-18T19:50:45.333Z,25.57
2023-01-18T19:53:13.855Z,27.27
2023-01-18T19:55:42.234Z,22.53
2023-01-18T19:58:12.231Z,24.97
2023-01-18T20:00:41.330Z,23.40
2023-01-18T20:03:14.360Z,23.37
2023-01-18T20:05:45.004Z,25.27
2023-01-18T20:08:13.586Z,21.23
2023-01-18T20:10:41.944Z,25.07
2023-01-18T20:13:11.781Z,24.47
2023-01-18T20:15:41.882Z,24.77
2023-01-18T20:18:10.549Z,26.73
2023-01-18T20:20:40.682Z,23.73
2023-01-18T20:23:09.473Z,27.07
2023-01-18T20:25:38.071Z,37.47
2023-01-18T20:28:06.691Z,45.03
2023-01-18T20:30:36.562Z,34.17
2023-01-18T20:33:05.274Z,39.53
2023-01-18T20:35:33.885Z,34.87
2023-01-18T20:38:02.306Z,34.67
2023-01-18T20:40:30.738Z,30.70
2023-01-18T20:42:59.736Z,33.00
2023-01-18T20:45:28.561Z,31.00
2023-01-18T20:47:58.578Z,29.23
2023-01-18T20:50:27.354Z,27.33
2023-01-18T20:52:56.200Z,30.47
2023-01-18T20:55:25.843Z,27.40
2023-01-18T20:57:55.289Z,25.97
2023-01-18T21:00:24.750Z,22.73
2023-01-18T21:02:53.248Z,27.13
2023-01-18T21:05:23.186Z,23.53
2023-01-18T21:07:51.679Z,22.03
2023-01-18T21:10:20.229Z,22.10
2023-01-18T21:12:49.231Z,24.53
2023-01-18T21:15:17.759Z,21.97
2023-01-18T21:17:46.029Z,24.90
2023-01-18T21:20:15.025Z,21.07
2023-01-18T21:22:44.675Z,24.87
2023-01-18T21:25:12.960Z,23.83
2023-01-18T21:27:43.543Z,22.87
2023-01-18T21:30:15.512Z,23.90
2023-01-18T21:32:43.952Z,28.10
2023-01-18T21:35:12.604Z,27.57
2023-01-18T21:37:41.385Z,23.03
2023-01-18T21:40:12.994Z,23.80
2023-01-18T21:43:01.173Z,24.00
2023-01-18T21:45:46.976Z,23.97
2023-01-18T21:48:15.316Z,26.77
2023-01-18T21:51:01.173Z,22.27
2023-01-18T21:53:46.869Z,25.07
2023-01-18T21:56:16.627Z,23.90
2023-01-18T21:58:53.979Z,22.73
2023-01-18T22:01:24.869Z,20.70
2023-01-18T22:04:12.081Z,22.57
2023-01-18T22:06:40.841Z,22.50
2023-01-18T22:09:09.373Z,22.13
2023-01-18T22:11:39.053Z,21.77
2023-01-18T22:14:09.792Z,22.23
2023-01-18T22:16:38.814Z,22.60
2023-01-18T22:19:07.185Z,25.03
2023-01-18T22:21:35.880Z,18.07
2023-01-18T22:24:04.522Z,22.60
2023-01-18T22:26:35.386Z,19.67
2023-01-18T22:29:06.108Z,20.50
2023-01-18T22:31:34.568Z,20.47
2023-01-18T22:34:04.606Z,16.13
2023-01-18T22:36:34.118Z,17.83
2023-01-18T22:39:02.670Z,19.80
2023-01-18T22:41:31.153Z,19.80
2023-01-18T22:43:59.470Z,19.43
2023-01-18T22:46:29.283Z,19.27
2023-01-18T22:48:58.721Z,16.47
2023-01-18T22:51:27.731Z,17.03
2023-01-18T22:53:56.724Z,19.27
2023-01-18T22:56:26.917Z,20.73
2023-01-18T22:58:55.287Z,18.47
2023-01-18T23:01:26.137Z,14.63
2023-01-18T23:03:58.122Z,17.57
2023-01-18T23:06:28.016Z,20.00
2023-01-18T23:08:57.057Z,18.97
2023-01-18T23:11:28.864Z,14.97
2023-01-18T23:14:16.631Z,18.90
2023-01-18T23:17:03.085Z,18.77
2023-01-18T23:19:33.419Z,16.47
2023-01-18T23:22:06.987Z,17.47
2023-01-18T23:24:36.512Z,16.63
2023-01-18T23:27:06.173Z,16.23
2023-01-18T23:29:34.884Z,20.47
2023-01-18T23:32:03.312Z,17.17
2023-01-18T23:34:32.969Z,21.10
2023-01-18T23:37:01.274Z,19.60
2023-01-18T23:39:47.135Z,18.60
2023-01-18T23:42:33.613Z,18.20
2023-01-18T23:45:19.477Z,22.83
2023-01-18T23:48:05.408Z,23.03
2023-01-18T23:50:52.571Z,23.10
2023-01-18T23:53:38.410Z,21.77
2023-01-18T23:56:07.377Z,23.93
2023-01-18T23:58:35.705Z,20.30
